createdAt,value
2019-03-10T00:02:49.107Z,4.60
2019-03-10T00:06:52.708Z,4.50
2019-03-10T00:10:56.320Z,4.50
2019-03-10T00:14:59.911Z,4.60
2019-03-10T00:19:03.556Z,4.70
2019-03-10T00:23:07.559Z,4.60
2019-03-10T00:27:11.156Z,4.60
2019-03-10T00:31:14.764Z,4.70
2019-03-10T00:35:18.468Z,4.80
2019-03-10T00:39:25.144Z,4.80
2019-03-10T00:43:43.959Z,4.70
2019-03-10T00:48:02.063Z,4.70
2019-03-10T00:52:17.746Z,4.60
2019-03-10T00:56:21.313Z,4.70
2019-03-10T01:00:24.971Z,4.70
2019-03-10T01:04:28.568Z,4.70
2019-03-10T01:08:32.407Z,4.70
2019-03-10T01:12:39.051Z,4.70
2019-03-10T01:16:43.493Z,4.80
2019-03-10T01:20:48.347Z,4.90
2019-03-10T01:24:51.935Z,4.90
2019-03-10T01:28:55.527Z,5.10
2019-03-10T01:33:20.294Z,5.20
2019-03-10T01:37:23.922Z,5.20
2019-03-10T01:41:27.594Z,5.30
2019-03-10T01:45:31.188Z,5.30
2019-03-10T01:49:34.739Z,5.30
2019-03-10T01:53:38.364Z,5.30
2019-03-10T01:57:42.003Z,5.30
2019-03-10T02:01:45.614Z,5.40
2019-03-10T02:05:49.193Z,5.40
2019-03-10T02:09:52.929Z,5.40
2019-03-10T02:13:56.619Z,5.30
2019-03-10T02:18:00.250Z,5.30
2019-03-10T02:22:03.958Z,5.30
2019-03-10T02:26:07.537Z,5.30
2019-03-10T02:30:13.806Z,5.40
2019-03-10T02:34:17.377Z,5.30
2019-03-10T02:38:21.008Z,5.30
2019-03-10T02:42:24.622Z,5.30
2019-03-10T02:46:28.233Z,5.30
2019-03-10T02:50:31.830Z,5.20
2019-03-10T02:54:35.400Z,5.30
2019-03-10T02:58:39.004Z,5.20
2019-03-10T03:02:42.612Z,5.20
2019-03-10T03:06:46.187Z,5.20
2019-03-10T03:10:49.783Z,5.10
2019-03-10T03:14:53.383Z,5.20
2019-03-10T03:18:56.997Z,5.30
2019-03-10T03:23:00.660Z,5.20
2019-03-10T03:27:04.227Z,5.30
2019-03-10T03:31:07.809Z,5.30
2019-03-10T03:35:32.860Z,5.40
2019-03-10T03:39:36.552Z,5.40
2019-03-10T03:43:40.197Z,5.30
2019-03-10T03:47:43.803Z,5.40
2019-03-10T03:51:47.399Z,5.40
2019-03-10T03:55:51.002Z,5.30
2019-03-10T03:59:54.599Z,5.20
2019-03-10T04:03:58.203Z,5.20
2019-03-10T04:08:01.781Z,5.10
2019-03-10T04:12:05.374Z,5.10
2019-03-10T04:16:08.952Z,5.10
2019-03-10T04:20:12.633Z,5.10
2019-03-10T04:24:16.272Z,5.10
2019-03-10T04:28:19.843Z,5.10
2019-03-10T04:32:23.460Z,5.20
2019-03-10T04:36:27.031Z,5.10
2019-03-10T04:40:30.630Z,4.90
2019-03-10T04:44:36.206Z,4.90
2019-03-10T04:48:42.527Z,5.00
2019-03-10T04:52:46.122Z,5.00
2019-03-10T04:56:51.439Z,5.00
2019-03-10T05:00:56.680Z,4.80
2019-03-10T05:05:00.353Z,4.80
2019-03-10T05:09:06.944Z,4.70
2019-03-10T05:13:10.542Z,4.80
2019-03-10T05:17:14.142Z,4.70
2019-03-10T05:21:17.959Z,4.70
2019-03-10T05:25:23.092Z,4.60
2019-03-10T05:29:26.761Z,4.70
2019-03-10T05:33:30.327Z,4.80
2019-03-10T05:37:33.907Z,4.60
2019-03-10T05:41:37.486Z,4.50
2019-03-10T05:45:41.231Z,4.60
2019-03-10T05:49:44.786Z,4.50
2019-03-10T05:53:48.365Z,4.60
2019-03-10T05:57:51.975Z,4.80
2019-03-10T06:01:55.565Z,4.60
2019-03-10T06:05:59.185Z,4.70
2019-03-10T06:10:02.824Z,4.70
2019-03-10T06:14:06.450Z,4.70
2019-03-10T06:18:13.860Z,4.70
2019-03-10T06:22:14.967Z,4.80
2019-03-10T06:26:18.595Z,4.70
2019-03-10T06:30:22.161Z,4.80
2019-03-10T06:34:25.738Z,4.70
2019-03-10T06:38:29.323Z,4.80
2019-03-10T06:42:32.931Z,4.70
2019-03-10T06:46:36.527Z,4.80
2019-03-10T06:50:40.113Z,4.90
2019-03-10T06:54:43.698Z,4.90
2019-03-10T06:58:47.287Z,5.10
2019-03-10T07:02:50.883Z,5.10
2019-03-10T07:06:54.567Z,5.10
2019-03-10T07:10:58.219Z,5.00
2019-03-10T07:15:01.838Z,5.00
2019-03-10T07:19:05.410Z,4.80
2019-03-10T07:23:10.653Z,4.80
2019-03-10T07:27:13.495Z,5.30
2019-03-10T07:31:24.932Z,5.50
2019-03-10T07:35:32.722Z,5.70
2019-03-10T07:39:46.989Z,5.80
2019-03-10T07:43:52.227Z,5.90
2019-03-10T07:47:57.459Z,6.00
2019-03-10T07:52:05.396Z,6.30
2019-03-10T07:56:16.645Z,6.20
2019-03-10T08:00:24.615Z,6.40
2019-03-10T08:04:38.375Z,6.50
2019-03-10T08:08:52.575Z,6.60
2019-03-10T08:12:57.911Z,6.70
2019-03-10T08:17:02.356Z,6.30
2019-03-10T08:21:22.655Z,6.20
2019-03-10T08:25:34.148Z,6.10
2019-03-10T08:29:42.479Z,6.20
2019-03-10T08:33:53.678Z,6.30
2019-03-10T08:37:58.930Z,6.30
2019-03-10T08:42:07.123Z,6.30
2019-03-10T08:46:12.359Z,6.30
2019-03-10T08:50:26.495Z,6.30
2019-03-10T08:54:31.739Z,6.30
2019-03-10T08:59:01.050Z,6.40
2019-03-10T09:03:12.144Z,6.50
2019-03-10T09:07:33.711Z,6.50
2019-03-10T09:11:38.989Z,6.50
2019-03-10T09:15:50.119Z,6.50
2019-03-10T09:19:55.768Z,6.50
2019-03-10T09:24:06.948Z,6.50
2019-03-10T09:28:21.070Z,6.60
2019-03-10T09:32:41.304Z,6.60
2019-03-10T09:36:55.907Z,6.70
2019-03-10T09:41:12.825Z,6.70
2019-03-10T09:45:34.084Z,6.80
2019-03-10T09:54:05.695Z,6.90
2019-03-10T09:58:13.912Z,7.00
2019-03-10T10:02:37.355Z,7.10
2019-03-10T10:06:42.616Z,7.30
2019-03-10T10:10:47.863Z,7.20
2019-03-10T10:14:53.109Z,7.20
2019-03-10T10:19:10.413Z,7.20
2019-03-10T10:23:15.639Z,7.20
2019-03-10T10:27:37.080Z,7.20
2019-03-10T10:36:07.124Z,7.20
2019-03-10T10:40:18.332Z,7.40
2019-03-10T10:44:23.550Z,7.50
2019-03-10T10:48:28.843Z,7.30
2019-03-10T10:52:37.171Z,7.20
2019-03-10T10:56:48.562Z,7.20
2019-03-10T11:01:10.043Z,7.20
2019-03-10T11:05:21.497Z,7.30
2019-03-10T11:09:43.269Z,7.30
2019-03-10T11:14:04.723Z,7.30
2019-03-10T11:18:26.153Z,7.20
2019-03-10T11:22:37.287Z,7.10
2019-03-10T11:26:58.759Z,7.10
2019-03-10T11:31:04.063Z,7.00
2019-03-10T11:35:10.427Z,7.10
2019-03-10T11:39:15.746Z,7.00
2019-03-10T11:43:29.975Z,6.80
2019-03-10T11:47:50.207Z,6.80
2019-03-10T11:52:01.522Z,6.90
2019-03-10T11:56:12.895Z,6.70
2019-03-10T12:00:18.931Z,6.60
2019-03-10T12:04:24.155Z,6.70
2019-03-10T12:08:35.410Z,6.60
2019-03-10T12:12:39.075Z,6.70
2019-03-10T12:16:42.763Z,6.50
2019-03-10T12:20:46.340Z,6.60
2019-03-10T12:24:49.945Z,6.50
2019-03-10T12:28:53.546Z,6.50
2019-03-10T12:32:57.159Z,6.50
2019-03-10T12:37:00.755Z,6.50
2019-03-10T12:41:04.335Z,6.60
2019-03-10T12:45:10.639Z,6.30
2019-03-10T12:49:14.240Z,6.50
2019-03-10T12:53:17.932Z,6.50
2019-03-10T12:57:21.535Z,6.50
2019-03-10T13:01:25.104Z,6.50
2019-03-10T13:05:28.723Z,6.50
2019-03-10T13:09:32.327Z,6.50
2019-03-10T13:13:35.986Z,6.60
2019-03-10T13:17:39.574Z,6.60
2019-03-10T13:21:43.256Z,6.40
2019-03-10T13:25:46.916Z,6.30
2019-03-10T13:29:50.511Z,6.20
2019-03-10T13:33:54.278Z,6.20
2019-03-10T13:37:57.810Z,6.20
2019-03-10T13:42:01.407Z,6.10
2019-03-10T13:46:05.031Z,6.00
2019-03-10T13:50:14.304Z,5.90
2019-03-10T13:54:17.895Z,5.80
2019-03-10T13:58:21.528Z,5.80
2019-03-10T14:02:25.115Z,5.80
2019-03-10T14:06:28.789Z,5.50
2019-03-10T14:10:32.384Z,5.60
2019-03-10T14:14:35.979Z,5.70
2019-03-10T14:18:41.496Z,5.50
2019-03-10T14:22:45.095Z,5.40
2019-03-10T14:26:48.707Z,5.40
2019-03-10T14:30:52.461Z,5.30
2019-03-10T14:34:56.290Z,5.30
2019-03-10T14:38:59.895Z,5.40
2019-03-10T14:43:03.756Z,5.40
2019-03-10T14:47:07.391Z,5.50
2019-03-10T14:51:13.485Z,5.60
2019-03-10T14:55:19.803Z,5.60
2019-03-10T14:59:23.555Z,5.60
2019-03-10T15:03:27.156Z,5.50
2019-03-10T15:07:30.800Z,5.40
2019-03-10T15:11:34.661Z,5.30
2019-03-10T15:15:38.257Z,5.20
2019-03-10T15:19:41.856Z,5.00
2019-03-10T15:23:45.428Z,4.80
2019-03-10T15:27:49.016Z,4.70
2019-03-10T15:31:52.932Z,4.60
2019-03-10T15:35:56.569Z,4.50
2019-03-10T15:40:00.274Z,4.50
2019-03-10T15:44:04.010Z,4.40
2019-03-10T15:48:07.656Z,4.30
2019-03-10T15:52:11.239Z,4.30
2019-03-10T15:56:14.808Z,4.10
2019-03-10T16:00:21.450Z,4.10
2019-03-10T16:04:25.042Z,4.00
2019-03-10T16:08:28.615Z,3.90
2019-03-10T16:12:32.207Z,3.90
2019-03-10T16:16:35.805Z,3.80
2019-03-10T16:20:39.408Z,3.80
2019-03-10T16:24:42.974Z,3.80
2019-03-10T16:28:46.576Z,3.80
2019-03-10T16:32:50.229Z,3.80
2019-03-10T16:36:53.835Z,3.70
2019-03-10T16:40:57.466Z,3.70
2019-03-10T16:45:01.015Z,3.70
2019-03-10T16:49:04.695Z,3.70
2019-03-10T16:53:08.280Z,3.60
2019-03-10T16:57:11.883Z,3.50
2019-03-10T17:01:15.504Z,3.40
2019-03-10T17:05:21.373Z,3.20
2019-03-10T17:09:25.295Z,3.10
2019-03-10T17:13:28.885Z,2.90
2019-03-10T17:17:32.561Z,2.80
2019-03-10T17:21:36.260Z,2.50
2019-03-10T17:25:39.828Z,2.20
2019-03-10T17:29:43.456Z,2.00
2019-03-10T17:33:47.135Z,1.90
2019-03-10T17:37:50.738Z,1.80
2019-03-10T17:41:54.328Z,1.70
2019-03-10T17:45:57.948Z,1.60
2019-03-10T17:50:01.517Z,1.60
2019-03-10T17:54:05.163Z,1.60
2019-03-10T17:58:08.769Z,1.60
2019-03-10T18:02:12.388Z,1.60
2019-03-10T18:06:16.003Z,1.60
2019-03-10T18:10:19.575Z,1.70
2019-03-10T18:14:25.361Z,1.80
2019-03-10T18:18:28.938Z,1.80
2019-03-10T18:22:32.547Z,1.90
2019-03-10T18:26:36.175Z,2.00
2019-03-10T18:30:39.766Z,2.10
2019-03-10T18:34:43.364Z,2.20
2019-03-10T18:38:47.271Z,2.20
2019-03-10T18:42:51.367Z,2.30
2019-03-10T18:46:55.111Z,2.30
2019-03-10T18:50:58.680Z,2.40
2019-03-10T18:55:04.431Z,2.40
2019-03-10T18:59:08.039Z,2.40
2019-03-10T19:03:11.679Z,2.40
2019-03-10T19:07:15.314Z,2.50
2019-03-10T19:11:18.907Z,2.60
2019-03-10T19:15:25.646Z,2.60
2019-03-10T19:19:31.763Z,2.60
2019-03-10T19:23:33.702Z,2.60
2019-03-10T19:27:37.328Z,2.60
2019-03-10T19:31:41.033Z,2.70
2019-03-10T19:35:44.713Z,2.70
2019-03-10T19:39:49.611Z,2.60
2019-03-10T19:43:53.181Z,2.60
2019-03-10T19:47:56.780Z,2.70
2019-03-10T19:52:00.791Z,2.70
2019-03-10T19:56:04.465Z,2.70
2019-03-10T20:00:11.477Z,2.60
2019-03-10T20:04:34.404Z,2.60
2019-03-10T20:08:38.001Z,2.60
2019-03-10T20:12:41.584Z,2.60
2019-03-10T20:16:45.205Z,2.60
2019-03-10T20:20:48.813Z,2.60
2019-03-10T20:24:52.437Z,2.70
2019-03-10T20:28:56.072Z,2.70
2019-03-10T20:32:59.693Z,2.80
2019-03-10T20:37:03.271Z,2.80
2019-03-10T20:41:06.852Z,2.80
2019-03-10T20:45:11.084Z,2.80
2019-03-10T20:49:14.784Z,2.80
2019-03-10T20:53:18.398Z,2.80
2019-03-10T20:57:22.064Z,2.80
2019-03-10T21:01:25.669Z,2.70
2019-03-10T21:05:29.490Z,2.70
2019-03-10T21:09:33.135Z,2.70
2019-03-10T21:13:36.735Z,2.70
2019-03-10T21:17:40.347Z,2.70
2019-03-10T21:21:43.968Z,2.70
2019-03-10T21:25:47.563Z,2.70
2019-03-10T21:29:51.329Z,2.70
2019-03-10T21:33:54.990Z,2.70
2019-03-10T21:37:58.649Z,2.70
2019-03-10T21:42:02.372Z,2.80
2019-03-10T21:46:07.591Z,2.70
2019-03-10T21:50:18.979Z,2.80
2019-03-10T21:54:22.692Z,2.80
2019-03-10T21:58:26.424Z,2.70
2019-03-10T22:02:30.011Z,2.70
2019-03-10T22:06:33.617Z,2.70
2019-03-10T22:10:37.234Z,2.80
2019-03-10T22:14:40.831Z,2.70
2019-03-10T22:18:44.418Z,2.80
2019-03-10T22:22:49.585Z,2.80
2019-03-10T22:26:53.267Z,2.80
2019-03-10T22:30:56.875Z,2.80
2019-03-10T22:35:00.498Z,2.80
2019-03-10T22:39:05.515Z,2.70
2019-03-10T22:43:09.106Z,2.70
2019-03-10T22:47:12.686Z,2.80
2019-03-10T22:51:16.285Z,2.70
2019-03-10T22:55:19.999Z,2.70
2019-03-10T22:59:23.579Z,2.70
2019-03-10T23:03:27.198Z,2.70
2019-03-10T23:07:30.798Z,2.70
2019-03-10T23:11:34.402Z,2.60
2019-03-10T23:15:37.974Z,2.60
2019-03-10T23:19:41.543Z,2.50
2019-03-10T23:23:45.436Z,2.50
2019-03-10T23:27:48.983Z,2.60
2019-03-10T23:31:52.615Z,2.60
2019-03-10T23:35:56.217Z,2.50
2019-03-10T23:39:59.808Z,2.50
2019-03-10T23:44:03.516Z,2.50
2019-03-10T23:48:07.136Z,2.40
2019-03-10T23:52:10.741Z,2.40
2019-03-10T23:56:14.355Z,2.40
